Stephen L. — WDE7070 — position and weather

sailwx.info

Track history (hours):
 
Tides and Currents Weather Stations Pressure Air Temp Water Temp Dewpoint Dewpoint Depression Visibility Wind Speed Wind Dir Waves Ship Positions

Stephen L.

Owner: TRIPLE S MARINE, LLC, MORGAN CITY, LA. More information available from US FCC via Universal Licensing System and Coast Guard Vessel Documentation Center.

Last reported at 2015-Jun-09 19:31 UTC. Time now 2015-Aug-04 09:40 UTC.
Position N 29°60' W 090°01'.
Warning: this ship's position is 55 days out of date.

Length 20 m.

Type: Ship. MMSI: 367388580.

Date/timePositionNaut miles runAvg speedWind from/ knotsBaromVisibWave heightAir tempDewpointWater temp
2015-Jun-09 19:31N 29°60' W 090°01'2 1.5
2015-Jun-09 18:20N 30°00' W 089°59'0 0.0
2015-Jun-09 17:27N 30°00' W 089°59'0 0.0
2015-Jun-09 16:30N 30°00' W 089°59'0 0.0
2015-Jun-09 15:32N 30°00' W 089°59'0 0.0
2015-Jun-09 14:32N 30°00' W 089°59'0 0.0
2015-Jun-09 13:31N 30°00' W 089°59'0 0.0
2015-Jun-09 12:30N 30°00' W 089°59'0 0.0
2015-Jun-09 11:32N 30°00' W 089°59'0 0.0
2015-Jun-09 10:33N 30°00' W 089°59'0 0.0
2015-Jun-09 09:30N 30°00' W 089°59'0 0.0
2015-Jun-09 08:33N 30°00' W 089°59'0 0.0
2015-Jun-09 07:30N 30°00' W 089°59'0 0.0
2015-Jun-09 06:32N 30°00' W 089°59'0 0.0
2015-Jun-09 05:32N 30°00' W 089°59'0 0.0
2015-Jun-09 04:31N 30°00' W 089°59'0 0.0
2015-Jun-09 03:31N 30°00' W 089°59'0 0.0
2015-Jun-09 02:27N 30°00' W 089°59'4 0.2
2015-Jun-08 06:31N 29°56' W 089°60'0 0.2
2015-Jun-08 05:25N 29°57' W 089°60'0 0.0
2015-Jun-08 03:30N 29°57' W 089°60'0 0.0
2015-Jun-08 02:29N 29°57' W 089°60'0 0.0
2015-Jun-07 23:08N 29°57' W 089°60'0 0.0
2015-Jun-07 22:30N 29°57' W 089°60'0 0.0
2015-Jun-07 21:32N 29°57' W 089°60'5 2.1
2015-Jun-07 19:03N 29°52' W 090°01'2 3.8
2015-Jun-07 18:31N 29°50' W 090°03'0 0.0
2015-Jun-07 17:30N 29°50' W 090°03'0 0.0
2015-Jun-07 16:33N 29°50' W 090°03'6 2.9
2015-Jun-07 14:24N 29°55' W 089°58'0 0.0
2015-Jun-07 13:22N 29°55' W 089°58'2 2.8
2015-Jun-07 12:34N 29°57' W 089°60'0 0.0
2015-Jun-07 11:33N 29°57' W 089°60'0 0.0
2015-Jun-07 10:33N 29°57' W 089°60'0 0.0
2015-Jun-07 09:29N 29°57' W 089°60'0 0.0
2015-Jun-07 08:25N 29°57' W 089°60'0 0.0
2015-Jun-07 07:33N 29°57' W 089°60'0 0.0
2015-Jun-07 06:32N 29°57' W 089°60'0 0.0
2015-Jun-07 05:29N 29°57' W 089°60'0 0.0
2015-Jun-07 04:29N 29°57' W 089°60'0 0.0
2015-Jun-07 03:33N 29°57' W 089°60'0 0.0
2015-Jun-06 09:25N 29°57' W 089°60'0 0.0
2015-Jun-06 07:04N 29°57' W 089°60'0 0.0
2015-Jun-06 05:21N 29°57' W 089°60'0 0.0
2015-Jun-06 04:23N 29°57' W 089°60'0 0.0
2015-Jun-06 03:32N 29°57' W 089°60'0 0.0
2015-Jun-06 02:05N 29°57' W 089°60'0 0.0
2015-Jun-06 01:23N 29°57' W 089°60'0 0.0
2015-Jun-06 00:32N 29°57' W 089°60'0 0.0
2015-Jun-05 23:33N 29°57' W 089°60'0 0.0
2015-Jun-05 22:27N 29°57' W 089°60'0 0.1
2015-Jun-05 21:27N 29°56' W 089°60'5 4.7
2015-Jun-05 20:28N 29°55' W 090°05'1 1.1
2015-Jun-05 19:26N 29°54' W 090°05'1 0.7
2015-Jun-05 18:33N 29°53' W 090°04'0 0.0
2015-Jun-05 17:33N 29°53' W 090°04'0 0.0
2015-Jun-05 15:05N 29°53' W 090°04'0 0.0
2015-Jun-05 09:10N 29°53' W 090°04'29 3.4
2015-Jun-05 00:31N 29°34' W 090°30'7 7.1
2015-Jun-04 23:34N 29°35' W 090°38'5 4.6
2015-Jun-04 22:34N 29°35' W 090°43'3 3.1
2015-Jun-04 21:34N 29°33' W 090°45'3 3.4
2015-Jun-04 20:34N 29°32' W 090°49'  
Track history (hours):
 
Tides and Currents Weather Stations Pressure Air Temp Water Temp Dewpoint Dewpoint Depression Visibility Wind Speed Wind Dir Waves Ship Positions

Stephen L.

Owner: TRIPLE S MARINE, LLC, MORGAN CITY, LA. More information available from US FCC via Universal Licensing System and Coast Guard Vessel Documentation Center.

Last reported at 2015-Jun-09 19:31 UTC. Time now 2015-Aug-04 09:40 UTC.
Position N 29°60' W 090°01'.
Warning: this ship's position is 55 days out of date.

Length 20 m.

Type: Ship. MMSI: 367388580.

Date/timePositionNaut miles runAvg speedWind from/ knotsBaromVisibWave heightAir tempDewpointWater temp
2015-Jun-09 19:31N 29°60' W 090°01'2 1.5
2015-Jun-09 18:20N 30°00' W 089°59'0 0.0
2015-Jun-09 17:27N 30°00' W 089°59'0 0.0
2015-Jun-09 16:30N 30°00' W 089°59'0 0.0
2015-Jun-09 15:32N 30°00' W 089°59'0 0.0
2015-Jun-09 14:32N 30°00' W 089°59'0 0.0
2015-Jun-09 13:31N 30°00' W 089°59'0 0.0
2015-Jun-09 12:30N 30°00' W 089°59'0 0.0
2015-Jun-09 11:32N 30°00' W 089°59'0 0.0
2015-Jun-09 10:33N 30°00' W 089°59'0 0.0
2015-Jun-09 09:30N 30°00' W 089°59'0 0.0
2015-Jun-09 08:33N 30°00' W 089°59'0 0.0
2015-Jun-09 07:30N 30°00' W 089°59'0 0.0
2015-Jun-09 06:32N 30°00' W 089°59'0 0.0
2015-Jun-09 05:32N 30°00' W 089°59'0 0.0
2015-Jun-09 04:31N 30°00' W 089°59'0 0.0
2015-Jun-09 03:31N 30°00' W 089°59'0 0.0
2015-Jun-09 02:27N 30°00' W 089°59'4 0.2
2015-Jun-08 06:31N 29°56' W 089°60'0 0.2
2015-Jun-08 05:25N 29°57' W 089°60'0 0.0
2015-Jun-08 03:30N 29°57' W 089°60'0 0.0
2015-Jun-08 02:29N 29°57' W 089°60'0 0.0
2015-Jun-07 23:08N 29°57' W 089°60'0 0.0
2015-Jun-07 22:30N 29°57' W 089°60'0 0.0
2015-Jun-07 21:32N 29°57' W 089°60'5 2.1
2015-Jun-07 19:03N 29°52' W 090°01'2 3.8
2015-Jun-07 18:31N 29°50' W 090°03'0 0.0
2015-Jun-07 17:30N 29°50' W 090°03'0 0.0
2015-Jun-07 16:33N 29°50' W 090°03'6 2.9
2015-Jun-07 14:24N 29°55' W 089°58'0 0.0
2015-Jun-07 13:22N 29°55' W 089°58'2 2.8
2015-Jun-07 12:34N 29°57' W 089°60'0 0.0
2015-Jun-07 11:33N 29°57' W 089°60'0 0.0
2015-Jun-07 10:33N 29°57' W 089°60'0 0.0
2015-Jun-07 09:29N 29°57' W 089°60'0 0.0
2015-Jun-07 08:25N 29°57' W 089°60'0 0.0
2015-Jun-07 07:33N 29°57' W 089°60'0 0.0
2015-Jun-07 06:32N 29°57' W 089°60'0 0.0
2015-Jun-07 05:29N 29°57' W 089°60'0 0.0
2015-Jun-07 04:29N 29°57' W 089°60'0 0.0
2015-Jun-07 03:33N 29°57' W 089°60'0 0.0
2015-Jun-06 09:25N 29°57' W 089°60'0 0.0
2015-Jun-06 07:04N 29°57' W 089°60'0 0.0
2015-Jun-06 05:21N 29°57' W 089°60'0 0.0
2015-Jun-06 04:23N 29°57' W 089°60'0 0.0
2015-Jun-06 03:32N 29°57' W 089°60'0 0.0
2015-Jun-06 02:05N 29°57' W 089°60'0 0.0
2015-Jun-06 01:23N 29°57' W 089°60'0 0.0
2015-Jun-06 00:32N 29°57' W 089°60'0 0.0
2015-Jun-05 23:33N 29°57' W 089°60'0 0.0
2015-Jun-05 22:27N 29°57' W 089°60'0 0.1
2015-Jun-05 21:27N 29°56' W 089°60'5 4.7
2015-Jun-05 20:28N 29°55' W 090°05'1 1.1
2015-Jun-05 19:26N 29°54' W 090°05'1 0.7
2015-Jun-05 18:33N 29°53' W 090°04'0 0.0
2015-Jun-05 17:33N 29°53' W 090°04'0 0.0
2015-Jun-05 15:05N 29°53' W 090°04'0 0.0
2015-Jun-05 09:10N 29°53' W 090°04'29 3.4
2015-Jun-05 00:31N 29°34' W 090°30'7 7.1
2015-Jun-04 23:34N 29°35' W 090°38'5 4.6
2015-Jun-04 22:34N 29°35' W 090°43'3 3.1
2015-Jun-04 21:34N 29°33' W 090°45'3 3.4
2015-Jun-04 20:34N 29°32' W 090°49'  

Dump ship's entire track history